Lovettsville, Virginia
Current Conditions -  °F | °C
As of 9:15 AM on Tuesday 27 Jan 2015 (Local Time) from KJYO Reporting Station
Broken Clouds Broken Clouds  
Wind Chill: 20°   Ceiling: 9000
Heat Index: 30°   Visibility: 10mi
Dew Point: 25°   Wind: 13mph
Humidity: 80%   Direction: 350°N
Pressure: 29.83"   Gusts: 21mph
Location:  39.27°N, 77.64°W
Report Text: KJYO 271415Z AUTO 35011G18KT 10SM SCT020 SCT050 BKN090 M01/M04 A2983 RMK AO2
Loading
Personal Weather Stations






























Interactive Weather Map New forecast layout! Learn more

10-Day Weather Forecast

Advertisements
Track Severe Weather on mobile